Time;durP1;ratioP1;P1;durP2;ratioP2;P2;SDS_P1;SDS_P2;PMS_P1;PMS_P2;Temp;Humidity;BMP_temperature;BMP_pressure;BME280_temperature;BME280_humidity;BME280_pressure;Samples;Min_cycle;Max_cycle;Signal;HPM_P1;HPM_P2
2024/01/15 00:00:40;;;;;;;11.07;9.88;;;;;;;18.26;41.89;100160.03;5020828;28;20057;-60
2024/01/15 00:03:09;;;;;;;10.93;9.73;;;;;;;18.25;41.92;100147.63;5024998;28;20046;-61
2024/01/15 00:05:36;;;;;;;11.63;9.77;;;;;;;18.24;41.83;100129.88;5025622;28;20060;-60
2024/01/15 00:08:04;;;;;;;10.60;9.18;;;;;;;18.24;41.90;100121.84;5024117;28;20053;-61
2024/01/15 00:10:31;;;;;;;10.82;9.52;;;;;;;18.25;41.72;100120.00;5012601;28;20060;-61
2024/01/15 00:12:59;;;;;;;10.90;9.82;;;;;;;18.24;41.81;100124.53;5023921;28;20052;-61
2024/01/15 00:15:28;;;;;;;11.65;10.45;;;;;;;18.24;41.80;100129.88;5031065;28;20482;-60
2024/01/15 00:17:56;;;;;;;11.50;10.25;;;;;;;18.23;41.70;100119.28;5036975;28;20059;-61
2024/01/15 00:20:23;;;;;;;11.10;10.02;;;;;;;18.23;41.66;100124.66;5027309;28;20443;-60
2024/01/15 00:22:52;;;;;;;11.55;10.40;;;;;;;18.22;41.72;100110.41;5026799;28;20045;-61
2024/01/15 00:25:19;;;;;;;11.68;10.48;;;;;;;18.22;41.61;100102.38;5025416;28;20046;-60
2024/01/15 00:27:47;;;;;;;11.90;10.55;;;;;;;18.22;41.66;100094.31;5024836;28;20049;-61
2024/01/15 00:30:14;;;;;;;10.93;9.77;;;;;;;18.22;41.72;100096.16;5021772;28;20050;-62
2024/01/15 00:32:42;;;;;;;10.98;9.93;;;;;;;18.22;41.63;100099.69;5023370;28;20042;-62
2024/01/15 00:35:09;;;;;;;11.27;10.05;;;;;;;18.22;41.69;100088.13;5031152;28;20522;-62
2024/01/15 00:37:37;;;;;;;11.43;10.23;;;;;;;18.21;41.66;100081.09;5026443;28;20049;-61
2024/01/15 00:40:05;;;;;;;12.05;10.73;;;;;;;18.21;41.60;100079.25;5021778;28;20038;-61
2024/01/15 00:42:33;;;;;;;11.95;10.45;;;;;;;18.20;41.53;100074.03;5024225;28;20056;-61
2024/01/15 00:45:00;;;;;;;11.73;10.52;;;;;;;18.20;41.53;100066.00;5025742;28;20053;-61
2024/01/15 00:47:28;;;;;;;13.05;11.57;;;;;;;18.20;41.62;100055.28;5024302;28;20046;-61
2024/01/15 00:49:55;;;;;;;12.38;10.60;;;;;;;18.20;41.65;100061.50;5021527;28;20041;-61
2024/01/15 00:52:22;;;;;;;12.77;10.80;;;;;;;18.19;41.55;100056.25;5024167;28;20048;-61
2024/01/15 00:54:50;;;;;;;12.10;10.73;;;;;;;18.20;41.58;100064.16;5025153;28;20041;-61
2024/01/15 00:57:18;;;;;;;12.20;10.90;;;;;;;18.18;41.60;100074.16;5023959;28;20041;-61
2024/01/15 00:59:47;;;;;;;12.10;10.90;;;;;;;18.18;41.57;100066.13;5022678;28;20038;-61
2024/01/15 01:02:14;;;;;;;12.05;10.85;;;;;;;18.18;41.56;100057.25;5023090;28;20392;-62
2024/01/15 01:04:41;;;;;;;12.30;11.10;;;;;;;18.18;41.64;100051.91;5025095;28;20045;-61
2024/01/15 01:07:08;;;;;;;13.00;11.27;;;;;;;18.18;41.63;100060.78;5023978;28;20076;-61
2024/01/15 01:09:36;;;;;;;12.80;11.50;;;;;;;18.17;41.77;100067.13;5025776;28;20048;-61
2024/01/15 01:12:04;;;;;;;12.80;11.50;;;;;;;18.17;41.56;100053.72;5019066;28;20041;-61
2024/01/15 01:14:31;;;;;;;13.05;10.93;;;;;;;18.17;41.69;100061.78;5028583;28;20042;-61
2024/01/15 01:16:59;;;;;;;12.50;11.30;;;;;;;18.17;41.61;100055.56;5026796;28;20503;-61
2024/01/15 01:19:26;;;;;;;12.45;11.15;;;;;;;18.15;41.61;100050.38;5025833;28;20053;-61
2024/01/15 01:21:54;;;;;;;14.32;12.15;;;;;;;18.15;41.65;100054.84;5027360;28;20050;-61
2024/01/15 01:24:22;;;;;;;12.02;10.73;;;;;;;18.15;41.54;100050.38;5028727;28;20403;-61
2024/01/15 01:26:49;;;;;;;12.63;11.32;;;;;;;18.14;41.48;100048.66;5027668;28;20041;-61
2024/01/15 01:29:17;;;;;;;12.93;11.60;;;;;;;18.14;41.62;100047.81;5025246;28;20507;-62
2024/01/15 01:31:45;;;;;;;12.80;11.50;;;;;;;18.14;41.59;100051.34;5027345;28;20057;-61
2024/01/15 01:34:16;;;;;;;13.40;12.00;;;;;;;18.14;41.51;100054.00;5028568;28;20115;-61
2024/01/15 01:36:43;;;;;;;12.98;11.63;;;;;;;18.14;41.53;100045.13;5024919;28;20049;-61
2024/01/15 01:39:11;;;;;;;13.32;11.93;;;;;;;18.13;41.61;100033.56;5027836;28;20056;-61
2024/01/15 01:41:39;;;;;;;17.08;12.43;;;;;;;18.13;41.57;100030.06;5027677;28;20407;-61
2024/01/15 01:44:07;;;;;;;13.73;12.27;;;;;;;18.11;41.63;100032.91;5028618;28;20049;-61
2024/01/15 01:46:40;;;;;;;12.75;11.40;;;;;;;18.11;41.71;100038.25;5026441;28;20050;-61
2024/01/15 01:49:09;;;;;;;13.75;11.70;;;;;;;18.11;41.73;100037.38;5024707;28;20408;-61
2024/01/15 01:51:39;;;;;;;15.63;12.23;;;;;;;18.09;41.69;100024.13;5011548;28;20057;-61
2024/01/15 01:54:09;;;;;;;12.93;11.52;;;;;;;18.09;41.75;100024.13;5023510;28;20045;-61
2024/01/15 01:56:37;;;;;;;14.07;12.30;;;;;;;18.08;41.61;100005.53;5024821;28;20488;-61
2024/01/15 01:59:06;;;;;;;13.20;11.85;;;;;;;18.08;41.52;100016.25;5024156;28;20049;-61
2024/01/15 02:01:33;;;;;;;12.15;10.85;;;;;;;18.08;41.51;100024.28;5028179;28;20049;-62
2024/01/15 02:04:01;;;;;;;12.90;11.48;;;;;;;18.07;41.55;100033.28;5027828;28;20404;-62
2024/01/15 02:06:29;;;;;;;13.43;12.02;;;;;;;18.06;41.54;100035.13;5024391;28;20046;-61
2024/01/15 02:08:57;;;;;;;13.73;12.27;;;;;;;18.05;41.58;100025.41;5025305;28;20073;-61
2024/01/15 02:11:24;;;;;;;13.00;11.70;;;;;;;18.07;41.52;100025.25;5023256;28;20489;-61
2024/01/15 02:13:51;;;;;;;12.95;11.48;;;;;;;18.06;41.56;100024.41;5023464;28;20108;-61
2024/01/15 02:16:20;;;;;;;12.60;10.98;;;;;;;18.06;41.57;100016.38;5024465;28;20053;-61
2024/01/15 02:18:47;;;;;;;13.43;12.00;;;;;;;18.07;41.57;100014.53;5025932;28;20060;-62
2024/01/15 02:21:15;;;;;;;14.45;12.95;;;;;;;18.06;41.45;100012.88;5027786;28;20045;-62
2024/01/15 02:23:42;;;;;;;14.00;12.52;;;;;;;18.04;41.63;100013.03;5027082;28;20385;-62
2024/01/15 02:26:10;;;;;;;14.82;12.50;;;;;;;18.05;41.58;99998.63;5024390;28;20049;-62
2024/01/15 02:28:38;;;;;;;13.13;11.73;;;;;;;18.04;41.56;100005.81;5025577;28;20041;-61
2024/01/15 02:31:05;;;;;;;13.25;11.80;;;;;;;18.05;41.63;100001.31;5027866;28;20061;-61
2024/01/15 02:33:32;;;;;;;13.63;12.10;;;;;;;18.04;41.62;100000.47;5027804;28;20072;-62
2024/01/15 02:36:00;;;;;;;14.95;12.60;;;;;;;18.04;41.69;99999.63;5024201;28;20411;-61
2024/01/15 02:38:27;;;;;;;13.68;12.15;;;;;;;18.03;41.51;100006.81;5024587;28;20058;-62
2024/01/15 02:40:55;;;;;;;13.65;12.02;;;;;;;18.04;41.70;100005.00;5027575;28;20042;-62
2024/01/15 02:43:22;;;;;;;13.35;11.82;;;;;;;18.03;41.62;100004.16;5026722;28;20056;-62
2024/01/15 02:45:49;;;;;;;13.05;11.25;;;;;;;18.04;41.71;99995.13;5023839;28;20053;-62
2024/01/15 02:48:17;;;;;;;13.55;12.15;;;;;;;18.03;41.69;99992.59;5024676;28;20050;-62
2024/01/15 02:50:45;;;;;;;13.38;11.88;;;;;;;18.03;41.59;99981.88;5027570;28;20042;-62
2024/01/15 02:53:12;;;;;;;13.70;11.73;;;;;;;18.03;41.68;99971.16;5027106;28;20053;-62
2024/01/15 02:55:39;;;;;;;16.25;13.00;;;;;;;18.02;41.54;99974.81;5024062;28;20046;-62
2024/01/15 02:58:07;;;;;;;13.23;11.75;;;;;;;18.02;41.71;99970.28;5024951;28;20046;-62
2024/01/15 03:00:34;;;;;;;13.75;11.57;;;;;;;18.02;41.68;99966.78;5026148;28;20056;-61
2024/01/15 03:03:02;;;;;;;15.07;12.90;;;;;;;18.01;41.75;99962.41;5027379;28;20056;-62
2024/01/15 03:05:29;;;;;;;13.18;11.73;;;;;;;18.00;41.60;99955.38;5023580;28;20045;-61
2024/01/15 03:07:57;;;;;;;14.43;12.68;;;;;;;18.00;41.42;99952.69;5023395;28;20054;-61
2024/01/15 03:10:24;;;;;;;15.57;13.27;;;;;;;17.99;41.67;99959.06;5027184;28;20056;-61
2024/01/15 03:12:51;;;;;;;12.70;11.40;;;;;;;17.98;41.63;99966.22;5018648;28;20049;-61
2024/01/15 03:15:19;;;;;;;14.18;12.50;;;;;;;17.98;41.42;99960.00;5023349;28;20663;-61
2024/01/15 03:17:46;;;;;;;14.23;12.60;;;;;;;17.97;41.58;99956.50;5023590;28;20072;-61
2024/01/15 03:20:14;;;;;;;13.65;11.63;;;;;;;17.96;41.61;99948.63;5027190;28;20044;-61
2024/01/15 03:22:41;;;;;;;13.77;12.35;;;;;;;17.96;41.56;99944.09;5027175;28;20045;-61
2024/01/15 03:25:09;;;;;;;12.63;11.25;;;;;;;17.95;41.53;99934.38;5024157;28;20041;-61
2024/01/15 03:27:36;;;;;;;14.23;12.57;;;;;;;17.95;41.58;99936.22;5024918;28;20038;-61
2024/01/15 03:30:04;;;;;;;13.90;12.38;;;;;;;17.95;41.54;99912.13;5026938;28;20416;-61
2024/01/15 03:32:32;;;;;;;13.13;11.73;;;;;;;17.94;41.65;99902.38;5026948;28;20484;-61
2024/01/15 03:35:00;;;;;;;14.23;12.73;;;;;;;17.93;41.57;99903.38;5023945;28;20046;-61
2024/01/15 03:37:27;;;;;;;16.30;12.70;;;;;;;17.93;41.64;99900.69;5026249;28;20097;-61
2024/01/15 03:39:55;;;;;;;14.68;12.90;;;;;;;17.93;41.56;99895.34;5026938;28;20049;-61
2024/01/15 03:42:22;;;;;;;14.02;12.55;;;;;;;17.93;41.56;99888.16;5027727;28;20142;-63
2024/01/15 03:44:50;;;;;;;14.77;12.70;;;;;;;17.92;41.42;99875.75;5023856;28;20046;-61
2024/01/15 03:47:17;;;;;;;15.77;12.55;;;;;;;17.92;41.40;99856.19;5024323;28;20050;-61
2024/01/15 03:49:44;;;;;;;14.43;12.93;;;;;;;17.92;41.46;99842.78;5027274;28;20048;-61
2024/01/15 03:52:12;;;;;;;15.00;12.88;;;;;;;17.92;41.54;99840.94;5026768;28;20057;-61
2024/01/15 03:54:39;;;;;;;13.90;12.10;;;;;;;17.92;41.38;99848.97;5023847;28;20054;-61
2024/01/15 03:57:07;;;;;;;14.60;12.73;;;;;;;17.92;41.48;99856.19;5024702;28;20049;-61
2024/01/15 03:59:34;;;;;;;14.93;12.88;;;;;;;17.92;41.36;99856.19;5026680;28;20407;-61
2024/01/15 04:02:01;;;;;;;14.10;12.40;;;;;;;17.93;41.51;99857.84;5026690;28;20037;-61
2024/01/15 04:04:29;;;;;;;14.60;12.95;;;;;;;17.93;41.53;99857.84;5023631;28;20053;-61
2024/01/15 04:06:56;;;;;;;15.07;13.00;;;;;;;17.92;41.60;99857.00;5024463;28;20050;-61
2024/01/15 04:09:24;;;;;;;12.90;11.55;;;;;;;17.92;41.59;99858.84;5026672;28;20377;-61
2024/01/15 04:11:51;;;;;;;14.70;12.98;;;;;;;17.92;41.61;99848.16;5026975;28;20407;-61
2024/01/15 04:14:18;;;;;;;14.38;12.40;;;;;;;17.92;41.53;99857.00;5014616;28;20042;-61
2024/01/15 04:16:46;;;;;;;13.82;12.23;;;;;;;17.92;41.69;99861.53;5027561;28;20056;-61
2024/01/15 04:19:13;;;;;;;14.80;13.02;;;;;;;17.91;41.61;99847.31;5030933;28;20053;-62
2024/01/15 04:21:41;;;;;;;14.25;12.75;;;;;;;17.92;41.66;99850.81;5043911;28;20045;-62
2024/01/15 04:24:08;;;;;;;14.20;12.70;;;;;;;17.92;41.60;99850.81;5030874;28;20495;-62
2024/01/15 04:26:36;;;;;;;13.60;12.20;;;;;;;17.91;41.74;99849.16;5024512;28;20072;-62
2024/01/15 04:29:03;;;;;;;14.88;12.95;;;;;;;17.91;41.82;99835.75;5026738;28;20041;-62
2024/01/15 04:31:30;;;;;;;14.85;12.93;;;;;;;17.91;41.80;99846.47;5027009;28;20060;-62
2024/01/15 04:33:58;;;;;;;16.20;12.57;;;;;;;17.90;41.83;99837.56;5024392;28;20511;-62
2024/01/15 04:36:25;;;;;;;13.70;11.95;;;;;;;17.89;41.76;99840.41;5034450;28;20054;-62
2024/01/15 04:38:53;;;;;;;13.80;12.40;;;;;;;17.90;41.73;99847.44;5026961;28;20050;-62
2024/01/15 04:41:20;;;;;;;13.93;12.52;;;;;;;17.88;41.86;99847.59;5026518;28;20415;-61
2024/01/15 04:43:48;;;;;;;15.40;13.38;;;;;;;17.88;41.90;99838.72;5024669;28;20049;-62
2024/01/15 04:46:16;;;;;;;13.73;12.27;;;;;;;17.88;41.90;99834.19;5025810;28;20053;-62
2024/01/15 04:48:43;;;;;;;13.73;12.38;;;;;;;17.88;41.80;99830.69;5038830;28;20101;-62
2024/01/15 04:51:11;;;;;;;13.93;12.15;;;;;;;17.88;41.79;99818.13;5030323;28;20041;-63
2024/01/15 04:53:38;;;;;;;14.65;13.10;;;;;;;17.87;41.89;99810.25;5027841;28;20049;-63
2024/01/15 04:56:05;;;;;;;15.73;12.70;;;;;;;17.86;41.68;99808.56;5027728;28;20048;-63
2024/01/15 04:58:33;;;;;;;14.43;12.45;;;;;;;17.86;41.92;99805.88;5030191;28;20052;-62
2024/01/15 05:01:00;;;;;;;16.02;13.35;;;;;;;17.85;41.88;99804.19;5035203;28;20395;-62
2024/01/15 05:03:28;;;;;;;13.63;12.18;;;;;;;17.84;41.99;99795.31;5028015;28;20045;-62
2024/01/15 05:05:55;;;;;;;13.85;12.25;;;;;;;17.84;41.88;99800.69;5027087;28;20129;-62
2024/01/15 05:08:23;;;;;;;13.98;12.02;;;;;;;17.84;41.80;99807.88;5030115;28;20046;-61
2024/01/15 05:10:50;;;;;;;12.35;11.05;;;;;;;17.84;41.84;99803.34;5030594;28;20048;-62
2024/01/15 05:13:17;;;;;;;13.40;12.02;;;;;;;17.83;41.85;99796.31;5029693;28;20072;-62
2024/01/15 05:15:45;;;;;;;13.82;12.38;;;;;;;17.82;41.83;99797.28;5015738;28;20504;-62
2024/01/15 05:18:12;;;;;;;15.70;13.13;;;;;;;17.83;41.78;99795.47;5035592;28;20515;-62
2024/01/15 05:20:40;;;;;;;14.45;12.90;;;;;;;17.83;41.77;99795.47;5035515;28;20037;-62
2024/01/15 05:23:08;;;;;;;15.77;13.80;;;;;;;17.83;41.81;99790.97;5038851;28;20047;-62
2024/01/15 05:25:35;;;;;;;15.30;12.85;;;;;;;17.83;41.68;99787.44;5027681;28;20053;-62
2024/01/15 05:28:02;;;;;;;13.30;11.82;;;;;;;17.84;41.79;99805.19;5030250;28;20053;-62
2024/01/15 05:30:29;;;;;;;13.65;11.82;;;;;;;17.84;41.73;99810.53;5029797;28;20058;-62
2024/01/15 05:32:57;;;;;;;15.73;13.13;;;;;;;17.84;41.75;99821.25;5028345;28;20045;-62
2024/01/15 05:35:25;;;;;;;13.48;11.63;;;;;;;17.84;41.85;99823.94;5027101;28;20050;-62
2024/01/15 05:37:52;;;;;;;12.25;10.70;;;;;;;17.83;41.85;99831.13;5025277;28;20046;-62
2024/01/15 05:40:20;;;;;;;12.85;11.40;;;;;;;17.82;41.91;99832.09;5030165;28;20049;-62
2024/01/15 05:42:47;;;;;;;16.00;13.32;;;;;;;17.84;41.83;99831.97;5027690;28;20048;-62
2024/01/15 05:45:15;;;;;;;12.68;11.38;;;;;;;17.84;42.06;99821.25;5038028;28;20054;-62
2024/01/15 05:47:43;;;;;;;14.15;11.60;;;;;;;17.83;41.94;99815.06;5035719;28;20037;-62
2024/01/15 05:50:13;;;;;;;12.82;11.50;;;;;;;17.82;41.88;99808.00;5040338;28;20045;-62
2024/01/15 05:52:40;;;;;;;13.50;12.13;;;;;;;17.83;41.92;99803.50;5027204;28;20479;-62
2024/01/15 05:55:09;;;;;;;13.43;12.00;;;;;;;17.82;41.91;99802.66;5039967;28;20404;-62
2024/01/15 05:57:37;;;;;;;13.43;12.05;;;;;;;17.82;41.93;99807.16;5048217;28;20391;-62
2024/01/15 06:00:05;;;;;;;15.05;11.75;;;;;;;17.82;42.01;99812.50;5035047;28;20053;-62
2024/01/15 06:02:32;;;;;;;12.68;11.25;;;;;;;17.82;41.89;99817.88;5038682;28;20052;-62
2024/01/15 06:05:01;;;;;;;13.82;12.05;;;;;;;17.81;41.97;99816.19;5030599;28;20050;-62
2024/01/15 06:07:29;;;;;;;13.07;11.52;;;;;;;17.81;42.02;99817.03;5038838;28;20049;-62
2024/01/15 06:09:56;;;;;;;12.02;10.70;;;;;;;17.81;42.05;99813.50;5029042;28;20053;-62
2024/01/15 06:12:24;;;;;;;12.45;11.15;;;;;;;17.80;41.91;99815.34;5025997;28;20069;-62
2024/01/15 06:14:52;;;;;;;13.23;11.32;;;;;;;17.79;42.05;99811.84;5025132;28;20419;-62
2024/01/15 06:17:19;;;;;;;14.55;11.98;;;;;;;17.79;42.08;99806.47;5020157;28;20049;-63
2024/01/15 06:19:46;;;;;;;12.40;11.10;;;;;;;17.79;41.97;99808.31;5039480;28;20053;-62
2024/01/15 06:22:16;;;;;;;12.73;11.43;;;;;;;17.78;42.09;99806.59;5045923;28;20053;-63
2024/01/15 06:24:43;;;;;;;13.90;11.15;;;;;;;17.78;42.18;99802.13;5045543;28;20049;-62
2024/01/15 06:27:10;;;;;;;13.05;11.50;;;;;;;17.77;42.26;99797.72;5037514;28;20049;-62
2024/01/15 06:29:39;;;;;;;12.10;10.80;;;;;;;17.77;42.35;99800.41;5038779;28;20380;-62
2024/01/15 06:32:06;;;;;;;11.77;10.52;;;;;;;17.78;42.26;99801.25;5041444;28;20050;-62
2024/01/15 06:34:33;;;;;;;12.02;10.73;;;;;;;17.78;42.52;99801.25;5046010;28;20113;-62
2024/01/15 06:37:01;;;;;;;11.45;10.35;;;;;;;17.77;42.55;99815.63;5030514;28;20045;-62
2024/01/15 06:39:29;;;;;;;12.13;10.82;;;;;;;17.77;42.41;99807.59;5029024;28;20056;-62
2024/01/15 06:41:57;;;;;;;12.63;11.02;;;;;;;17.77;42.44;99812.97;5026678;28;20049;-62
2024/01/15 06:44:24;;;;;;;12.15;10.90;;;;;;;17.76;42.31;99797.91;5027683;28;20048;-63
2024/01/15 06:46:51;;;;;;;12.10;10.90;;;;;;;17.75;42.33;99793.53;5028913;28;20108;-62
2024/01/15 06:49:19;;;;;;;12.15;10.95;;;;;;;17.74;42.40;99784.66;5028829;28;20389;-62
2024/01/15 06:51:46;;;;;;;12.82;11.20;;;;;;;17.74;42.11;99786.44;5026369;28;20046;-62
2024/01/15 06:54:16;;;;;;;13.88;11.68;;;;;;;17.74;42.19;99787.34;5028263;28;20420;-62
2024/01/15 06:56:43;;;;;;;12.85;11.45;;;;;;;17.75;42.27;99786.34;5028781;28;20053;-62
2024/01/15 06:59:10;;;;;;;12.48;10.88;;;;;;;17.75;42.28;99788.19;5029743;28;20056;-62
2024/01/15 07:01:38;;;;;;;12.43;11.07;;;;;;;17.74;42.23;99792.69;5027054;28;20042;-62
2024/01/15 07:04:05;;;;;;;12.48;11.07;;;;;;;17.74;42.22;99791.78;5027479;28;20046;-62
2024/01/15 07:06:32;;;;;;;12.38;11.07;;;;;;;17.74;42.28;99792.69;5028365;28;20129;-62
2024/01/15 07:09:00;;;;;;;12.23;10.93;;;;;;;17.74;42.25;99782.00;5028032;28;20500;-63
2024/01/15 07:11:27;;;;;;;12.02;10.48;;;;;;;17.73;42.28;99787.44;5025813;28;20049;-63
2024/01/15 07:13:55;;;;;;;12.60;11.27;;;;;;;17.74;42.19;99791.78;5027048;28;20058;-62
2024/01/15 07:16:22;;;;;;;11.60;10.32;;;;;;;17.74;42.28;99800.72;5024017;28;20080;-63
2024/01/15 07:19:04;;;;;;;11.80;10.18;;;;;;;17.74;42.27;99791.78;5024561;28;20053;-63
2024/01/15 07:21:32;;;;;;;12.02;10.77;;;;;;;17.74;42.10;99791.78;5025090;28;20404;-61
2024/01/15 07:23:59;;;;;;;11.88;10.68;;;;;;;17.74;42.13;99808.75;5028403;28;20411;-63
2024/01/15 07:26:27;;;;;;;12.02;10.73;;;;;;;17.72;42.23;99805.34;5028697;28;20049;-62
2024/01/15 07:28:54;;;;;;;11.57;10.38;;;;;;;17.73;42.44;99807.00;5027883;28;20050;-62
2024/01/15 07:31:21;;;;;;;12.40;10.77;;;;;;;17.73;42.42;99803.50;5024737;28;20057;-62
2024/01/15 07:33:49;;;;;;;12.43;10.70;;;;;;;17.75;42.50;99790.88;5028546;28;20049;-61
2024/01/15 07:36:16;;;;;;;12.88;11.52;;;;;;;17.74;42.70;99790.03;5026922;28;20400;-62
2024/01/15 07:38:43;;;;;;;12.13;10.90;;;;;;;17.74;42.81;99789.13;5029113;28;20045;-63
2024/01/15 07:41:12;;;;;;;12.77;11.20;;;;;;;17.72;42.75;99780.41;5024540;28;20053;-62
2024/01/15 07:43:39;;;;;;;12.48;10.98;;;;;;;17.72;42.84;99785.75;5018155;28;20517;-62
2024/01/15 07:46:07;;;;;;;12.05;10.75;;;;;;;17.71;42.80;99800.97;5028412;28;20046;-62
2024/01/15 07:48:34;;;;;;;12.80;11.00;;;;;;;17.69;42.93;99805.63;5027682;28;20045;-62
2024/01/15 07:51:04;;;;;;;11.57;10.35;;;;;;;17.69;43.17;99805.63;5024902;28;20408;-62
2024/01/15 07:53:31;;;;;;;15.63;11.48;;;;;;;17.70;43.27;99810.00;5028707;28;20052;-61
2024/01/15 07:55:58;;;;;;;13.13;11.77;;;;;;;17.68;43.14;99806.63;5027470;28;20037;-61
2024/01/15 07:58:26;;;;;;;15.07;13.63;;;;;;;17.66;42.30;99797.91;5027440;28;20045;-62
2024/01/15 08:00:53;;;;;;;20.45;18.23;;;;;;;17.64;41.53;99794.53;5024205;28;20487;-63
2024/01/15 08:03:20;;;;;;;21.23;18.58;;;;;;;17.62;41.01;99811.69;5027309;28;20692;-63
2024/01/15 08:05:52;;;;;;;23.25;20.75;;;;;;;17.57;40.84;99806.78;5027970;28;20518;-63
2024/01/15 08:08:21;;;;;;;21.40;19.17;;;;;;;17.55;40.75;99806.94;5025861;28;20041;-63
2024/01/15 08:10:49;;;;;;;17.13;15.43;;;;;;;17.57;41.44;99809.47;5025090;28;20050;-63
2024/01/15 08:13:16;;;;;;;16.45;14.68;;;;;;;17.58;41.64;99805.78;5027976;28;20041;-63
2024/01/15 08:15:44;;;;;;;17.23;15.43;;;;;;;17.58;41.74;99800.44;5027587;28;20049;-62
2024/01/15 08:18:11;;;;;;;18.88;15.75;;;;;;;17.59;41.71;99791.44;5014120;28;20476;-62
2024/01/15 08:20:39;;;;;;;16.75;14.98;;;;;;;17.59;41.70;99807.50;5025534;28;20041;-62
2024/01/15 08:23:09;;;;;;;17.10;15.20;;;;;;;17.59;41.74;99812.84;5030623;28;20045;-63
2024/01/15 08:25:36;;;;;;;15.88;14.23;;;;;;;17.60;41.80;99819.88;5032029;28;20479;-62
2024/01/15 08:28:04;;;;;;;16.42;14.73;;;;;;;17.59;41.72;99818.19;5030102;28;20048;-63
2024/01/15 08:30:32;;;;;;;15.77;14.18;;;;;;;17.59;41.77;99820.03;5029716;28;20061;-64
2024/01/15 08:33:00;;;;;;;16.92;15.13;;;;;;;17.60;41.72;99825.25;5031778;28;20042;-63
2024/01/15 08:35:37;;;;;;;15.85;14.15;;;;;;;17.60;41.81;99819.88;5031749;28;20053;-62
2024/01/15 08:38:05;;;;;;;16.20;14.50;;;;;;;17.58;41.74;99805.78;5028332;28;20065;-62
2024/01/15 08:40:33;;;;;;;16.05;13.82;;;;;;;17.59;41.66;99790.59;5031177;28;20384;-62
2024/01/15 08:43:01;;;;;;;14.88;12.98;;;;;;;17.58;41.72;99787.06;5031680;28;20076;-62
2024/01/15 08:45:29;;;;;;;15.10;13.50;;;;;;;17.58;41.74;99800.44;5031992;28;20499;-62
2024/01/15 08:47:59;;;;;;;16.15;14.50;;;;;;;17.58;41.74;99811.13;5039535;28;20057;-62
2024/01/15 08:50:26;;;;;;;14.93;13.43;;;;;;;17.60;41.65;99808.34;5031612;28;20515;-62
2024/01/15 08:52:54;;;;;;;16.30;14.63;;;;;;;17.59;41.75;99812.84;5031657;28;20423;-62
2024/01/15 08:55:22;;;;;;;14.50;13.10;;;;;;;17.61;41.79;99823.41;5031719;28;20044;-62
2024/01/15 08:57:50;;;;;;;15.05;12.98;;;;;;;17.61;41.69;99818.03;5027538;28;20050;-62
2024/01/15 09:00:18;;;;;;;14.45;12.95;;;;;;;17.59;41.71;99815.53;5031107;28;20042;-62
2024/01/15 09:02:45;;;;;;;15.63;13.95;;;;;;;17.60;41.84;99819.88;5031161;28;20041;-62
2024/01/15 09:05:13;;;;;;;14.95;13.35;;;;;;;17.59;41.58;99820.88;5031361;28;20049;-62
2024/01/15 09:07:42;;;;;;;15.55;13.43;;;;;;;17.58;41.75;99821.84;5027229;28;20041;-62
2024/01/15 09:10:09;;;;;;;16.10;13.02;;;;;;;17.60;41.79;99827.91;5019830;28;20042;-62
2024/01/15 09:12:36;;;;;;;14.18;12.68;;;;;;;17.60;41.85;99827.06;5031514;28;20049;-62
2024/01/15 09:15:05;;;;;;;15.10;13.57;;;;;;;17.60;41.92;99833.25;5031005;28;20045;-62
2024/01/15 09:17:32;;;;;;;15.18;13.57;;;;;;;17.60;41.79;99821.72;5027237;28;20057;-62
2024/01/15 09:20:00;;;;;;;14.82;13.25;;;;;;;17.60;41.86;99819.88;5018432;28;20052;-62
2024/01/15 09:22:28;;;;;;;14.02;12.65;;;;;;;17.59;41.83;99823.56;5031638;28;20042;-62
2024/01/15 09:24:55;;;;;;;14.48;12.82;;;;;;;17.61;41.78;99816.22;5031328;28;20515;-62
2024/01/15 09:27:23;;;;;;;14.20;12.70;;;;;;;17.60;41.83;99825.25;5027519;28;20050;-62
2024/01/15 09:29:50;;;;;;;14.48;13.00;;;;;;;17.60;41.70;99824.41;5019638;28;20049;-62
2024/01/15 09:32:18;;;;;;;14.63;12.75;;;;;;;17.61;41.71;99823.41;5030903;28;20049;-62
2024/01/15 09:34:46;;;;;;;13.93;12.05;;;;;;;17.60;41.89;99801.16;5031003;28;20046;-62
2024/01/15 09:37:14;;;;;;;13.40;12.02;;;;;;;17.62;41.76;99811.69;5026450;28;20045;-62
2024/01/15 09:40:02;;;;;;;14.15;12.68;;;;;;;17.60;41.83;99806.50;5030551;28;20123;-62
2024/01/15 09:42:30;;;;;;;14.73;12.95;;;;;;;17.60;41.76;99806.50;5030647;28;20046;-61
2024/01/15 09:44:58;;;;;;;15.02;12.50;;;;;;;17.60;41.79;99822.56;5028184;28;20420;-61
2024/01/15 09:47:25;;;;;;;13.68;12.32;;;;;;;17.59;41.67;99812.84;5030330;28;20049;-62
2024/01/15 09:49:53;;;;;;;13.68;12.27;;;;;;;17.58;41.80;99805.78;5030549;28;20045;-61
2024/01/15 09:52:21;;;;;;;14.90;12.63;;;;;;;17.59;41.76;99807.50;5031064;28;20054;-61
2024/01/15 09:54:50;;;;;;;14.02;12.63;;;;;;;17.59;41.70;99806.66;5027521;28;20038;-62
2024/01/15 09:57:17;;;;;;;13.82;12.30;;;;;;;17.59;41.91;99796.78;5030312;28;20053;-62
2024/01/15 09:59:47;;;;;;;14.50;12.93;;;;;;;17.58;41.82;99792.41;5030923;28;20121;-61
2024/01/15 10:02:17;;;;;;;12.93;11.63;;;;;;;17.58;41.86;99786.22;5030601;28;20052;-62
2024/01/15 10:04:45;;;;;;;14.52;13.02;;;;;;;17.59;42.00;99788.75;5026864;28;20045;-61
2024/01/15 10:07:19;;;;;;;12.90;11.63;;;;;;;17.58;42.16;99792.41;5019155;28;20045;-61
2024/01/15 10:09:47;;;;;;;12.82;11.52;;;;;;;17.59;42.07;99788.75;5030610;28;20053;-61
2024/01/15 10:12:15;;;;;;;13.70;12.30;;;;;;;17.60;42.11;99782.41;5029458;28;20046;-61
2024/01/15 10:14:43;;;;;;;12.50;11.27;;;;;;;17.59;42.20;99780.75;5026594;28;20041;-61
2024/01/15 10:17:17;;;;;;;13.55;12.15;;;;;;;17.60;42.16;99771.72;5030719;28;20052;-61
2024/01/15 10:19:48;;;;;;;12.88;11.50;;;;;;;17.61;42.20;99761.84;5020725;28;20053;-61
2024/01/15 10:22:20;;;;;;;13.73;11.95;;;;;;;17.61;42.21;99769.88;5028292;28;20045;-61
2024/01/15 10:24:47;;;;;;;13.07;11.77;;;;;;;17.60;42.38;99758.34;5029730;28;20037;-61
2024/01/15 10:27:16;;;;;;;14.52;11.05;;;;;;;17.62;42.32;99767.03;5030675;28;20049;-62
2024/01/15 10:29:43;;;;;;;13.20;11.38;;;;;;;17.62;42.17;99777.75;5030093;28;20084;-62
2024/01/15 10:32:11;;;;;;;13.18;11.80;;;;;;;17.61;42.33;99762.69;5027456;28;20393;-62
2024/01/15 10:34:40;;;;;;;12.10;10.90;;;;;;;17.63;42.20;99751.84;5030124;28;20068;-62
2024/01/15 10:37:09;;;;;;;12.52;11.32;;;;;;;17.61;42.27;99751.13;5030870;28;20056;-62
2024/01/15 10:39:37;;;;;;;12.32;11.07;;;;;;;17.63;42.22;99747.34;5030072;28;20056;-62
2024/01/15 10:42:06;;;;;;;12.48;11.18;;;;;;;17.65;42.20;99736.47;5026657;28;20050;-62
2024/01/15 10:44:35;;;;;;;13.82;12.27;;;;;;;17.65;42.06;99744.50;5019531;28;20049;-62
2024/01/15 10:47:04;;;;;;;13.68;12.27;;;;;;;17.66;42.14;99746.19;5030238;28;20045;-61
2024/01/15 10:49:32;;;;;;;11.95;10.75;;;;;;;17.67;42.05;99737.19;5030401;28;20049;-62
2024/01/15 10:52:01;;;;;;;12.90;11.25;;;;;;;17.68;42.00;99731.69;5026716;28;20061;-62
2024/01/15 10:54:30;;;;;;;13.57;11.77;;;;;;;17.67;42.00;99727.31;5029656;28;20045;-61
2024/01/15 10:56:58;;;;;;;13.40;11.43;;;;;;;17.70;42.06;99736.88;5027999;28;20049;-61
2024/01/15 10:59:25;;;;;;;12.73;11.27;;;;;;;17.68;41.99;99720.97;5029310;28;20054;-61
2024/01/15 11:01:53;;;;;;;12.82;11.48;;;;;;;17.68;42.01;99715.63;5026741;28;20049;-61
2024/01/15 11:04:23;;;;;;;12.57;11.27;;;;;;;17.70;41.90;99710.09;5029479;28;20053;-61
2024/01/15 11:06:55;;;;;;;12.52;11.23;;;;;;;17.70;41.83;99710.09;5031959;28;20037;-61
2024/01/15 11:09:24;;;;;;;13.13;11.07;;;;;;;17.70;41.81;99699.41;5040310;28;20049;-61
2024/01/15 11:12:07;;;;;;;12.52;10.98;;;;;;;17.70;41.84;99691.38;5040807;28;20508;-61
2024/01/15 11:14:38;;;;;;;13.30;11.90;;;;;;;17.69;41.75;99687.00;5029354;28;20108;-61
2024/01/15 11:17:06;;;;;;;13.15;11.05;;;;;;;17.69;41.81;99681.66;5029262;28;20049;-61